• Join FlightAware (Why Join?)
  • Login
  • US Flag 
03:43PM EDT


 

Airport Tracker/Info


-or-


 

Live Flight TrackerFlight Track Log ✈ EMD24 ✈ 21-Jun-2013 ✈ KHYS - KGLD

Flight Track Log - Related Links

Times and Time Zones

All times are in EDT time to prevent confusion due to time zone crossing. See the EMD24 flight status page for this flight to view local times or setup timezone preferences in your user account.

Time Position Orientation Groundspeed Altitude Reporting Facility
EDT Latitude Longitude Course Direction KTS MPH feet Rate Location/Type
06:53PM 38.8281 -99.3544 286° West 118 136 6,800  Level Kansas City Center
06:54PM 38.8386 -99.4044 285° West 120 138 8,700 1,680 Climbing Kansas City Center
06:55PM 38.8483 -99.4489 286° West 126 145 10,300 1,320 Climbing Kansas City Center
06:56PM 38.8581 -99.4906 287° West 123 142 11,500 1,320 Climbing Kansas City Center
06:57PM 38.8650 -99.3949 293° West  Level FlightAware Approximate
06:57PM 38.8661 -99.5339 283° West 125 144 13,100  Level Kansas City Center
06:58PM 38.8787 -99.4600 284° West  Level FlightAware Approximate
06:59PM 38.8926 -99.5251 286° West  Level FlightAware Approximate
06:59PM 38.8886 -99.6292 287° West 138 159 15,600  Level Denver Center
07:00PM 38.9008 -99.6761 289° West 145 167 16,100 240 Climbing Denver Center
07:01PM 38.9117 -99.7267 285° West 174 200 16,200 -60 Climbing Denver Center
07:02PM 38.9339 -99.8044 290° West 204 235 16,000 -120 Descending Denver Center
07:03PM 38.9594 -99.8947 290° West 210 242 16,000  Level Denver Center
07:04PM 38.9783 -99.9633 290° West 212 244 16,000  Level Denver Center
07:05PM 38.9914 -100.0369 283° West 214 246 16,000  Level Denver Center
07:07PM 39.0092 -100.1153 286° West 207 238 16,000  Level Denver Center
07:08PM 39.0247 -100.1844 286° West 208 239 16,000  Level Denver Center
07:09PM 39.0417 -100.2642 285° West 207 238 16,000  Level Denver Center
07:10PM 39.0583 -100.3367 287° West 216 249 16,000  Level Denver Center
07:11PM 39.0808 -100.4289 287° West 213 245 16,000  Level Denver Center
07:12PM 39.0956 -100.4992 285° West 214 246 16,000  Level Denver Center
07:13PM 39.1175 -100.5797 289° West 215 247 16,000  Level Denver Center
07:14PM 39.1339 -100.6497 287° West 213 245 16,000  Level Denver Center
07:15PM 39.1528 -100.7319 287° West 214 246 16,000  Level Denver Center
07:16PM 39.1661 -100.7922 286° West 218 251 16,000  Level Denver Center
07:17PM 39.1850 -100.8747 286° West 215 247 16,000  Level Denver Center
07:18PM 39.2031 -100.9567 286° West 214 246 16,000  Level Denver Center
07:19PM 39.2197 -101.0281 287° West 217 250 16,000 -300 Level Denver Center
07:20PM 39.2386 -101.1122 286° West 218 251 15,500 -780 Descending Denver Center
07:21PM 39.2528 -101.1872 284° West 223 257 14,500 -1,380 Descending Denver Center
07:22PM 39.2794 -101.2811 290° West 242 278 12,700 -1,560 Descending Denver Center
07:23PM 39.2981 -101.3644 286° West 249 287 11,300 -1,680 Descending Denver Center
07:24PM 39.3194 -101.4608 286° West 250 288 9,300 -1,560 Descending Denver Center
07:25PM 39.3411 -101.5397 290° West 247 284 8,100 -1,080 Descending Denver Center
07:26PM 39.3633 -101.6214 289° West 239 275 7,100 -1,020 Descending Denver Center
07:28PM 39.3667 -101.6833 288° West  Level FlightAware Approximate
07:35PM 39.3706 -101.6990 288° West  Level Estimated
07:36PM 39.3706 -101.6990 288° West  Level Estimated
07:37PM 39.3706 -101.6990 288° West  Level Estimated